Terminal Aerodrome Forecast
Issued by NWS Portland, ME

Home | Current Version | Previous Version | Text Only | Print | Product List | Glossary On
Versions: 1 2 3 4 5 6 7 8 9 10 11 12 13 14 15 16 17
453
FTUS41 KGYX 231120
TAFCON
TAF
KCON 231120Z 2312/2412 VRB03KT P6SM FEW070
     FM231400 31012G18KT P6SM SCT050
     FM240000 VRB03KT P6SM FEW200=

USA.gov is the U.S. government's official web portal to all federal, state and local government web resources and services.